Time;durP1;ratioP1;P1;durP2;ratioP2;P2;SDS_P1;SDS_P2;PMS_P1;PMS_P2;Temp;Humidity;BMP_temperature;BMP_pressure;BME280_temperature;BME280_humidity;BME280_pressure;Samples;Min_cycle;Max_cycle;Signal;HPM_P1;HPM_P2
2022/08/08 00:01:54;;;;;;;0.40;0.40;;;23.10;59.70;;;;;;5016908;28;20054;-43
2022/08/08 00:04:19;;;;;;;0.30;0.30;;;23.10;59.80;;;;;;5016357;28;20054;-43
2022/08/08 00:07:01;;;;;;;0.30;0.30;;;23.10;59.80;;;;;;4983918;28;20034;-43
2022/08/08 00:10:12;;;;;;;0.40;0.40;;;23.10;59.80;;;;;;4982592;28;20039;-42
2022/08/08 00:12:55;;;;;;;0.43;0.22;;;23.10;59.80;;;;;;4970917;28;20080;-43
2022/08/08 00:15:27;;;;;;;0.32;0.32;;;23.10;59.60;;;;;;4987162;28;20523;-43
2022/08/08 00:18:00;;;;;;;0.20;0.20;;;23.10;59.80;;;;;;4970850;28;20567;-43
2022/08/08 00:21:04;;;;;;;0.38;0.38;;;23.10;59.90;;;;;;4987345;28;20039;-44
2022/08/08 00:23:44;;;;;;;0.30;0.30;;;23.00;59.90;;;;;;5006618;28;20096;-42
2022/08/08 00:26:11;;;;;;;0.35;0.35;;;23.00;59.80;;;;;;4988965;28;20516;-43
2022/08/08 00:28:42;;;;;;;0.28;0.28;;;23.00;59.90;;;;;;4987051;28;20112;-42
2022/08/08 00:31:17;;;;;;;0.30;0.30;;;23.00;59.90;;;;;;4987825;28;20081;-42
2022/08/08 00:33:47;;;;;;;0.30;0.30;;;23.00;59.80;;;;;;5018568;28;20058;-42
2022/08/08 00:36:29;;;;;;;1.08;0.45;;;23.10;59.70;;;;;;4986878;28;20061;-43
2022/08/08 00:39:10;;;;;;;0.30;0.30;;;23.00;59.80;;;;;;4971457;28;20038;-46
2022/08/08 00:42:17;;;;;;;0.30;0.30;;;23.00;59.70;;;;;;4987379;28;20048;-41
2022/08/08 00:45:03;;;;;;;0.45;0.35;;;23.00;59.80;;;;;;4975347;28;20496;-42
2022/08/08 00:48:04;;;;;;;0.30;0.30;;;23.00;59.80;;;;;;5018084;28;20042;-44
2022/08/08 00:51:07;;;;;;;0.68;0.50;;;23.00;59.90;;;;;;4986840;28;20046;-42
2022/08/08 00:53:55;;;;;;;0.35;0.30;;;23.00;59.50;;;;;;4986151;28;20516;-43
2022/08/08 00:56:38;;;;;;;0.40;0.40;;;23.00;59.50;;;;;;5002310;28;20051;-43
2022/08/08 00:59:37;;;;;;;0.30;0.30;;;23.10;59.50;;;;;;4987352;28;20133;-43
2022/08/08 01:02:11;;;;;;;0.30;0.30;;;23.10;59.50;;;;;;4987491;28;20046;-43
2022/08/08 01:04:43;;;;;;;1.02;0.30;;;23.10;59.30;;;;;;4987692;28;20042;-43
2022/08/08 01:07:26;;;;;;;0.30;0.30;;;23.10;59.30;;;;;;4986104;28;20035;-42
2022/08/08 01:10:10;;;;;;;0.40;0.40;;;23.10;59.50;;;;;;4986860;28;20050;-42
2022/08/08 01:12:59;;;;;;;0.30;0.30;;;23.10;59.30;;;;;;4986829;28;20411;-46
2022/08/08 01:16:02;;;;;;;0.40;0.40;;;23.10;59.40;;;;;;4985507;28;20321;-43
2022/08/08 01:18:52;;;;;;;0.30;0.30;;;23.10;59.30;;;;;;4986377;28;20042;-41
2022/08/08 01:21:30;;;;;;;0.30;0.30;;;23.10;59.50;;;;;;4985424;28;20072;-43
2022/08/08 01:24:01;;;;;;;0.40;0.40;;;23.10;59.50;;;;;;4982864;28;20043;-43
2022/08/08 01:26:27;;;;;;;0.22;0.22;;;23.20;59.20;;;;;;4985468;28;20050;-46
2022/08/08 01:29:32;;;;;;;0.52;0.30;;;23.20;59.00;;;;;;4985630;28;20053;-42
2022/08/08 01:32:40;;;;;;;0.30;0.30;;;23.20;59.10;;;;;;5010514;28;20042;-42
2022/08/08 01:35:33;;;;;;;0.30;0.30;;;23.20;59.10;;;;;;4983888;28;20057;-44
2022/08/08 01:38:11;;;;;;;0.30;0.30;;;23.20;59.10;;;;;;4984831;28;20056;-43
2022/08/08 01:41:05;;;;;;;0.43;0.40;;;23.20;59.20;;;;;;4989069;28;20042;-42
2022/08/08 01:43:48;;;;;;;0.30;0.30;;;23.20;59.30;;;;;;4987074;28;20038;-42
2022/08/08 01:46:38;;;;;;;0.40;0.30;;;23.20;59.10;;;;;;5015775;28;20176;-44
2022/08/08 01:49:11;;;;;;;0.60;0.30;;;23.20;59.20;;;;;;4987569;28;20050;-43
2022/08/08 01:51:39;;;;;;;0.30;0.30;;;23.20;59.10;;;;;;4987781;28;20046;-42
2022/08/08 01:54:21;;;;;;;0.40;0.40;;;23.20;59.10;;;;;;4985111;28;20065;-42
2022/08/08 01:57:07;;;;;;;0.75;0.28;;;23.20;59.10;;;;;;5017903;28;20403;-42
2022/08/08 01:59:59;;;;;;;0.40;0.40;;;23.20;59.00;;;;;;5000031;28;20295;-42
2022/08/08 02:02:35;;;;;;;0.40;0.40;;;23.20;59.10;;;;;;4988742;28;20042;-43
2022/08/08 02:05:20;;;;;;;0.40;0.40;;;23.20;59.20;;;;;;4985818;28;20046;-42
2022/08/08 02:08:07;;;;;;;0.30;0.30;;;23.20;59.10;;;;;;4988853;28;20106;-42
2022/08/08 02:11:16;;;;;;;0.40;0.40;;;23.20;59.00;;;;;;4983688;28;20045;-42
2022/08/08 02:14:02;;;;;;;0.43;0.43;;;23.20;59.00;;;;;;5015669;28;20108;-42
2022/08/08 02:16:39;;;;;;;0.30;0.30;;;23.20;59.00;;;;;;4978141;28;20533;-42
2022/08/08 02:19:23;;;;;;;0.40;0.40;;;23.20;59.00;;;;;;4992385;28;20072;-42
2022/08/08 02:24:53;;;;;;;0.30;0.30;;;23.20;59.00;;;;;;5001292;28;20152;-42
2022/08/08 02:27:23;;;;;;;0.43;0.43;;;23.20;59.00;;;;;;4996081;28;20038;-42
2022/08/08 02:30:11;;;;;;;0.28;0.28;;;23.10;59.10;;;;;;4977754;28;20043;-42
2022/08/08 02:32:42;;;;;;;0.50;0.30;;;23.10;59.10;;;;;;4976743;28;20042;-44
2022/08/08 02:35:40;;;;;;;0.40;0.40;;;23.20;59.10;;;;;;4981425;28;23806;-43
2022/08/08 02:38:26;;;;;;;0.40;0.40;;;23.10;58.90;;;;;;4974287;28;20471;-42
2022/08/08 02:41:21;;;;;;;0.47;0.47;;;23.10;59.00;;;;;;4974987;28;20125;-42
2022/08/08 02:44:37;;;;;;;0.35;0.32;;;23.20;59.00;;;;;;4994785;28;20139;-42
2022/08/08 02:47:40;;;;;;;0.25;0.25;;;23.10;59.10;;;;;;4961187;28;20415;-43
2022/08/08 02:50:43;;;;;;;0.40;0.32;;;23.20;59.00;;;;;;4954894;28;20054;-42
2022/08/08 02:53:46;;;;;;;0.32;0.32;;;23.10;59.10;;;;;;4947320;28;20044;-42
2022/08/08 02:56:30;;;;;;;0.85;0.30;;;23.20;59.00;;;;;;4946105;28;20138;-43
2022/08/08 02:59:33;;;;;;;0.30;0.30;;;23.10;59.00;;;;;;4945900;28;20070;-43
2022/08/08 03:02:19;;;;;;;0.30;0.30;;;23.20;58.90;;;;;;4944925;28;20047;-43
2022/08/08 03:05:00;;;;;;;0.30;0.30;;;23.20;58.90;;;;;;4947818;28;20043;-42
2022/08/08 03:07:38;;;;;;;0.40;0.40;;;23.10;58.80;;;;;;4948674;28;20036;-43
2022/08/08 03:10:39;;;;;;;0.38;0.38;;;23.10;58.80;;;;;;4944930;28;20134;-43
2022/08/08 03:13:26;;;;;;;0.38;0.38;;;23.20;58.90;;;;;;4943754;28;20050;-43
2022/08/08 03:16:08;;;;;;;0.30;0.30;;;23.10;58.80;;;;;;4926299;29;20055;-42
2022/08/08 03:18:46;;;;;;;0.50;0.50;;;23.10;59.20;;;;;;4928469;29;20557;-40
2022/08/08 03:21:11;;;;;;;0.30;0.30;;;23.20;59.60;;;;;;4945247;28;20039;-42
2022/08/08 03:23:37;;;;;;;0.57;0.45;;;23.20;58.90;;;;;;4944292;28;20073;-43
2022/08/08 03:26:02;;;;;;;0.43;0.43;;;23.10;58.80;;;;;;4927751;29;20043;-42
2022/08/08 03:28:34;;;;;;;0.30;0.30;;;23.10;58.80;;;;;;4943858;28;20043;-43
2022/08/08 03:33:16;;;;;;;0.35;0.35;;;23.10;59.40;;;;;;4959683;28;20053;-42
2022/08/08 03:33:46;;;;;;;0.30;0.30;;;23.20;58.70;;;;;;4963402;28;21888;-42
2022/08/08 03:36:12;;;;;;;0.30;0.30;;;23.20;58.70;;;;;;4962269;28;20039;-43
2022/08/08 03:38:38;;;;;;;0.45;0.20;;;23.10;58.60;;;;;;4963304;28;20074;-44
2022/08/08 03:41:03;;;;;;;0.22;0.22;;;23.10;58.70;;;;;;4964304;28;20101;-43
2022/08/08 03:43:29;;;;;;;0.40;0.30;;;23.10;58.80;;;;;;4965244;28;20050;-42
2022/08/08 03:45:55;;;;;;;0.30;0.30;;;23.10;58.80;;;;;;4943845;28;20057;-45
2022/08/08 03:48:21;;;;;;;0.20;0.20;;;23.10;58.80;;;;;;4963425;28;20046;-42
2022/08/08 03:50:47;;;;;;;0.40;0.40;;;23.00;58.80;;;;;;4949698;28;20488;-42
2022/08/08 03:53:15;;;;;;;0.40;0.40;;;23.10;58.80;;;;;;4953120;28;20062;-42
2022/08/08 03:55:42;;;;;;;0.30;0.30;;;23.10;58.70;;;;;;4967758;28;20054;-40
2022/08/08 03:58:08;;;;;;;0.63;0.40;;;23.10;58.60;;;;;;4967125;28;20439;-42
2022/08/08 04:00:34;;;;;;;0.35;0.35;;;23.10;58.60;;;;;;4969852;28;20050;-43
2022/08/08 04:03:02;;;;;;;0.40;0.40;;;23.10;58.60;;;;;;4965334;28;20123;-42
2022/08/08 04:05:32;;;;;;;0.40;0.40;;;23.10;58.70;;;;;;4966297;28;20034;-42
2022/08/08 04:07:58;;;;;;;0.20;0.20;;;23.10;58.80;;;;;;4965776;28;20531;-42
2022/08/08 04:10:25;;;;;;;0.20;0.20;;;23.10;58.60;;;;;;4966225;28;20412;-42
2022/08/08 04:12:50;;;;;;;0.30;0.30;;;23.10;58.80;;;;;;4964785;28;20043;-43
2022/08/08 04:15:16;;;;;;;0.30;0.30;;;23.10;58.90;;;;;;4965906;28;20535;-42
2022/08/08 04:17:41;;;;;;;0.30;0.30;;;23.00;58.80;;;;;;4964495;28;20053;-41
2022/08/08 04:20:07;;;;;;;0.30;0.30;;;23.10;58.80;;;;;;4965971;28;20051;-42
2022/08/08 04:22:33;;;;;;;0.40;0.40;;;23.10;58.80;;;;;;4965004;28;20046;-42
2022/08/08 04:24:59;;;;;;;0.30;0.30;;;23.10;58.80;;;;;;4964421;28;20043;-43
2022/08/08 04:27:24;;;;;;;0.40;0.40;;;23.10;58.60;;;;;;4966216;28;20047;-42
2022/08/08 04:29:50;;;;;;;0.40;0.40;;;23.00;58.80;;;;;;5002288;28;20435;-42
2022/08/08 04:32:16;;;;;;;0.52;0.40;;;23.00;58.80;;;;;;4984949;28;20038;-42
2022/08/08 04:34:41;;;;;;;0.40;0.40;;;23.00;58.80;;;;;;4986674;28;20057;-42
2022/08/08 04:37:07;;;;;;;0.40;0.40;;;23.00;58.90;;;;;;4985026;28;20069;-42
2022/08/08 04:39:33;;;;;;;0.40;0.40;;;23.00;58.80;;;;;;4983766;28;20066;-42
2022/08/08 04:41:58;;;;;;;0.70;0.70;;;23.00;59.30;;;;;;4983414;28;20488;-42
2022/08/08 04:44:24;;;;;;;0.80;0.80;;;22.70;55.00;;;;;;4984429;28;20130;-42
2022/08/08 04:46:49;;;;;;;0.80;0.80;;;22.30;53.30;;;;;;4985409;28;20073;-42
2022/08/08 04:49:15;;;;;;;0.75;0.75;;;22.00;53.40;;;;;;4634837;28;10000607;-42
2022/08/08 04:51:40;;;;;;;0.90;0.90;;;21.80;53.00;;;;;;4979419;28;20050;-42
2022/08/08 04:54:06;;;;;;;1.00;0.90;;;21.50;53.40;;;;;;4981063;28;20053;-42
2022/08/08 04:56:32;;;;;;;2.53;0.85;;;21.50;53.60;;;;;;4977228;28;20124;-42
2022/08/08 04:58:57;;;;;;;0.90;0.90;;;21.40;53.60;;;;;;5011362;28;20443;-46
2022/08/08 05:01:23;;;;;;;1.40;1.00;;;21.30;53.80;;;;;;4980760;28;20137;-42
2022/08/08 05:03:48;;;;;;;0.98;0.98;;;21.10;54.00;;;;;;4985133;28;20046;-43
2022/08/08 05:06:14;;;;;;;0.77;0.77;;;21.10;54.10;;;;;;4983462;28;20471;-42
2022/08/08 05:08:41;;;;;;;1.48;1.13;;;20.90;54.40;;;;;;4977498;28;20035;-34
2022/08/08 05:11:06;;;;;;;0.80;0.80;;;20.90;54.50;;;;;;4979440;28;20054;-42
2022/08/08 05:13:32;;;;;;;1.02;1.00;;;20.80;54.70;;;;;;4982503;28;20038;-43
2022/08/08 05:15:58;;;;;;;0.95;0.90;;;20.80;54.80;;;;;;4986818;28;20042;-45
2022/08/08 05:18:24;;;;;;;1.30;1.05;;;20.60;55.10;;;;;;4988941;28;20117;-42
2022/08/08 05:20:49;;;;;;;1.25;1.10;;;20.60;55.10;;;;;;4988391;28;20565;-42
2022/08/08 05:23:15;;;;;;;1.25;1.15;;;20.60;55.20;;;;;;4988919;28;20042;-42
2022/08/08 05:25:40;;;;;;;1.02;0.93;;;20.60;55.20;;;;;;4990524;28;20049;-43
2022/08/08 05:28:06;;;;;;;1.40;1.30;;;20.60;55.20;;;;;;4988226;28;20500;-42
2022/08/08 05:30:32;;;;;;;1.50;1.10;;;20.40;55.30;;;;;;4988895;28;20047;-42
2022/08/08 05:32:58;;;;;;;1.27;1.10;;;20.40;55.40;;;;;;4988141;28;20034;-42
2022/08/08 05:35:23;;;;;;;1.50;1.27;;;20.30;55.60;;;;;;4988473;28;20056;-42
2022/08/08 05:37:54;;;;;;;0.85;0.85;;;20.20;56.60;;;;;;4987462;28;20051;-42
2022/08/08 05:40:20;;;;;;;0.98;0.90;;;20.20;55.90;;;;;;4988660;28;20046;-42
2022/08/08 05:42:50;;;;;;;1.20;1.10;;;20.10;56.30;;;;;;4987374;28;20097;-40
2022/08/08 05:45:16;;;;;;;2.15;1.27;;;20.00;56.40;;;;;;4995309;28;20050;-42
2022/08/08 05:47:42;;;;;;;3.00;1.17;;;20.00;56.70;;;;;;4975834;28;20108;-40
2022/08/08 05:50:08;;;;;;;1.10;1.00;;;20.00;56.90;;;;;;4983012;28;20767;-42
2022/08/08 05:52:34;;;;;;;1.40;1.30;;;20.00;57.00;;;;;;4988147;28;20129;-42
2022/08/08 05:55:01;;;;;;;1.50;1.10;;;19.90;57.60;;;;;;4982154;28;20141;-42
2022/08/08 05:57:26;;;;;;;0.95;0.80;;;19.80;57.80;;;;;;4984124;28;20046;-42
2022/08/08 05:59:52;;;;;;;1.30;1.10;;;19.80;57.90;;;;;;4985034;28;20065;-42
2022/08/08 06:05:08;;;;;;;1.30;1.02;;;19.90;57.80;;;;;;4984653;28;20138;-42
2022/08/08 06:07:33;;;;;;;1.02;0.98;;;19.80;58.00;;;;;;4989385;28;20096;-43
2022/08/08 06:10:00;;;;;;;1.85;1.00;;;19.80;58.10;;;;;;4982927;28;20129;-42
2022/08/08 06:12:26;;;;;;;1.70;0.90;;;19.80;58.10;;;;;;4980321;28;20042;-46
2022/08/08 06:14:51;;;;;;;1.20;0.95;;;19.80;58.30;;;;;;4982894;28;20065;-42
2022/08/08 06:17:17;;;;;;;1.02;0.90;;;19.80;58.40;;;;;;4985944;28;20516;-42
2022/08/08 06:19:42;;;;;;;0.90;0.90;;;19.80;58.40;;;;;;5001450;28;20435;-42
2022/08/08 06:22:08;;;;;;;1.10;0.85;;;19.90;58.30;;;;;;4984094;28;20500;-42
2022/08/08 06:24:34;;;;;;;1.05;0.90;;;19.90;58.30;;;;;;4983997;28;20068;-42
2022/08/08 06:27:04;;;;;;;0.95;0.90;;;19.80;58.50;;;;;;4983206;28;20066;-41
2022/08/08 06:29:36;;;;;;;0.95;0.88;;;19.80;58.60;;;;;;4985325;28;20054;-42
2022/08/08 06:32:03;;;;;;;1.30;0.90;;;19.80;58.60;;;;;;4985451;28;20046;-43
2022/08/08 06:34:33;;;;;;;1.13;0.85;;;19.80;58.80;;;;;;4984396;28;20062;-42
2022/08/08 06:36:59;;;;;;;0.95;0.95;;;19.80;59.10;;;;;;4982724;28;20066;-42
2022/08/08 06:39:24;;;;;;;1.73;0.93;;;19.80;59.00;;;;;;4983859;28;20049;-42
2022/08/08 06:42:01;;;;;;;1.23;1.13;;;19.90;59.10;;;;;;4981851;28;20045;-41
2022/08/08 06:44:27;;;;;;;1.15;1.05;;;19.80;59.20;;;;;;5012617;28;20494;-42
2022/08/08 06:46:53;;;;;;;0.70;0.70;;;19.90;59.30;;;;;;4999044;28;20041;-43
2022/08/08 06:49:19;;;;;;;0.70;0.68;;;19.90;59.20;;;;;;4986504;28;20049;-42
2022/08/08 06:51:44;;;;;;;0.95;0.95;;;19.80;59.30;;;;;;4985737;28;20495;-45
2022/08/08 06:54:10;;;;;;;0.75;0.75;;;19.90;59.50;;;;;;4982870;28;20534;-43
2022/08/08 06:56:36;;;;;;;1.27;0.70;;;19.90;59.40;;;;;;4981407;28;20146;-42
2022/08/08 06:59:02;;;;;;;1.02;0.63;;;20.00;59.30;;;;;;4980762;28;20051;-43
2022/08/08 07:01:29;;;;;;;0.90;0.90;;;20.10;59.10;;;;;;4984771;28;20046;-43
2022/08/08 07:04:03;;;;;;;0.82;0.77;;;20.20;59.00;;;;;;4982054;28;20044;-42
2022/08/08 07:06:32;;;;;;;0.85;0.60;;;20.30;58.90;;;;;;5013020;28;20684;-43
2022/08/08 07:09:05;;;;;;;0.70;0.60;;;20.40;58.70;;;;;;4981925;28;20046;-42
2022/08/08 07:11:31;;;;;;;0.75;0.60;;;20.40;58.70;;;;;;5015035;28;20054;-42
2022/08/08 07:13:59;;;;;;;0.77;0.70;;;20.40;58.70;;;;;;4978200;28;20543;-42
2022/08/08 07:17:00;;;;;;;0.65;0.65;;;20.40;58.70;;;;;;4987368;28;20136;-42
2022/08/08 07:19:53;;;;;;;0.73;0.73;;;20.50;58.50;;;;;;4942543;29;20047;-45
2022/08/08 07:22:35;;;;;;;0.68;0.68;;;20.60;58.40;;;;;;4928406;29;20063;-43
2022/08/08 07:25:03;;;;;;;0.70;0.70;;;20.60;58.40;;;;;;4921446;28;20047;-42
2022/08/08 07:27:39;;;;;;;0.93;0.70;;;20.60;58.20;;;;;;4925063;29;20688;-44
2022/08/08 07:30:05;;;;;;;0.88;0.85;;;20.70;58.10;;;;;;4926106;29;21055;-42
2022/08/08 07:32:31;;;;;;;1.02;0.90;;;20.70;58.10;;;;;;4942892;28;20094;-42
2022/08/08 07:35:00;;;;;;;1.05;0.80;;;20.80;58.10;;;;;;4941355;29;20571;-41
2022/08/08 07:37:26;;;;;;;0.68;0.68;;;20.80;57.80;;;;;;4941718;28;20043;-42
2022/08/08 07:39:52;;;;;;;0.70;0.70;;;20.80;57.80;;;;;;4941158;29;20078;-42
2022/08/08 07:42:18;;;;;;;0.82;0.82;;;20.90;57.50;;;;;;4944530;28;20089;-42
2022/08/08 07:44:44;;;;;;;0.60;0.60;;;20.90;57.60;;;;;;4927384;29;20074;-42
2022/08/08 07:47:10;;;;;;;0.90;0.90;;;21.00;57.20;;;;;;4940642;28;20610;-46
2022/08/08 07:49:35;;;;;;;0.90;0.90;;;21.00;57.20;;;;;;4942698;29;20047;-45
2022/08/08 07:52:02;;;;;;;0.60;0.60;;;21.00;56.90;;;;;;4942630;29;20103;-43
2022/08/08 07:54:33;;;;;;;0.60;0.60;;;21.10;56.50;;;;;;4976479;28;20118;-43
2022/08/08 07:57:29;;;;;;;0.60;0.60;;;21.10;56.50;;;;;;4992549;28;20042;-43
2022/08/08 08:00:05;;;;;;;0.70;0.70;;;21.10;56.20;;;;;;4979212;28;20467;-42
2022/08/08 08:02:39;;;;;;;0.85;0.60;;;21.10;56.00;;;;;;4984395;28;20065;-43
2022/08/08 08:05:11;;;;;;;0.73;0.73;;;21.10;55.60;;;;;;4983255;28;20053;-43
2022/08/08 08:07:37;;;;;;;0.50;0.50;;;21.20;55.60;;;;;;4982421;28;20050;-42
2022/08/08 08:10:03;;;;;;;0.75;0.75;;;21.20;55.10;;;;;;5015622;28;20070;-42
2022/08/08 08:12:29;;;;;;;1.10;0.60;;;21.20;54.60;;;;;;4984981;28;20647;-43
2022/08/08 08:15:02;;;;;;;0.80;0.80;;;21.20;55.10;;;;;;4982096;28;20118;-43
2022/08/08 08:17:28;;;;;;;0.70;0.60;;;21.30;54.70;;;;;;4980023;28;20523;-43
2022/08/08 08:19:56;;;;;;;0.60;0.60;;;21.30;54.00;;;;;;4982777;28;20467;-33
2022/08/08 08:22:22;;;;;;;0.40;0.40;;;21.30;54.20;;;;;;4985495;28;20122;-37
2022/08/08 08:24:47;;;;;;;0.52;0.45;;;21.30;54.70;;;;;;4982325;28;20140;-37
2022/08/08 08:27:13;;;;;;;0.52;0.50;;;21.30;55.00;;;;;;4981426;28;20046;-34
2022/08/08 08:29:39;;;;;;;0.50;0.50;;;21.30;54.90;;;;;;4982337;28;20575;-37
2022/08/08 08:32:05;;;;;;;0.80;0.80;;;21.40;55.00;;;;;;4975637;28;20503;-38
2022/08/08 08:34:30;;;;;;;0.70;0.57;;;21.50;54.90;;;;;;4985485;28;20062;-38
2022/08/08 08:36:56;;;;;;;0.80;0.70;;;21.40;55.00;;;;;;4985017;28;20043;-38
2022/08/08 08:39:21;;;;;;;0.45;0.45;;;21.50;55.00;;;;;;5019016;28;20085;-33
2022/08/08 08:41:47;;;;;;;1.17;0.75;;;21.50;55.00;;;;;;4990062;28;20487;-37
2022/08/08 08:44:13;;;;;;;0.70;0.70;;;21.50;55.00;;;;;;5002993;28;20435;-37
2022/08/08 08:46:38;;;;;;;0.60;0.60;;;21.50;55.40;;;;;;5001763;28;20057;-38
2022/08/08 08:49:04;;;;;;;0.60;0.60;;;21.50;55.10;;;;;;4987013;28;20116;-40
2022/08/08 08:51:30;;;;;;;1.00;0.60;;;21.50;55.10;;;;;;4983531;28;20507;-38
2022/08/08 08:53:55;;;;;;;0.80;0.60;;;21.50;55.30;;;;;;4983037;28;20385;-36
2022/08/08 08:56:23;;;;;;;0.70;0.70;;;21.50;54.90;;;;;;4984681;28;20039;-38
2022/08/08 08:58:49;;;;;;;0.43;0.43;;;21.50;55.80;;;;;;4988868;28;20096;-35
2022/08/08 09:01:16;;;;;;;0.60;0.60;;;21.60;55.00;;;;;;4983205;28;20038;-36
2022/08/08 09:03:46;;;;;;;0.50;0.50;;;21.60;56.30;;;;;;4983421;28;20422;-37
2022/08/08 09:06:14;;;;;;;0.60;0.60;;;21.60;54.40;;;;;;4986875;28;20046;-37
2022/08/08 09:08:42;;;;;;;2.83;1.05;;;21.60;54.60;;;;;;4985739;28;20543;-36
2022/08/08 09:11:08;;;;;;;0.50;0.50;;;21.60;54.80;;;;;;4982987;28;20101;-35
2022/08/08 09:13:37;;;;;;;1.98;0.70;;;21.60;54.80;;;;;;4985624;28;20061;-35
2022/08/08 09:16:03;;;;;;;1.13;1.00;;;21.70;54.90;;;;;;4978284;28;20138;-36
2022/08/08 09:18:31;;;;;;;1.70;0.60;;;21.70;55.10;;;;;;4976253;28;20090;-37
2022/08/08 09:20:57;;;;;;;0.80;0.73;;;21.80;55.50;;;;;;4996963;28;20404;-36
2022/08/08 09:23:23;;;;;;;0.63;0.57;;;21.90;55.50;;;;;;4983425;28;20053;-36
2022/08/08 09:25:56;;;;;;;1.23;0.60;;;21.90;55.30;;;;;;4983940;28;20133;-36
2022/08/08 09:28:22;;;;;;;0.60;0.60;;;22.00;55.30;;;;;;5001470;28;20070;-37
2022/08/08 09:30:49;;;;;;;0.55;0.40;;;22.00;55.30;;;;;;5017097;28;20061;-34
2022/08/08 09:33:15;;;;;;;0.52;0.50;;;21.90;55.60;;;;;;5013541;28;20053;-35
2022/08/08 09:35:45;;;;;;;0.50;0.50;;;21.90;55.50;;;;;;4986355;28;20405;-37
2022/08/08 09:38:11;;;;;;;0.40;0.32;;;22.00;55.50;;;;;;4985670;28;20050;-37
2022/08/08 09:40:36;;;;;;;0.45;0.45;;;22.00;55.40;;;;;;4998767;28;20409;-33
2022/08/08 09:43:02;;;;;;;0.93;0.60;;;22.00;55.30;;;;;;4988408;28;20039;-39
2022/08/08 09:45:31;;;;;;;3.50;0.80;;;22.10;54.80;;;;;;4981774;28;20129;-38
2022/08/08 09:48:00;;;;;;;0.98;0.50;;;22.20;54.50;;;;;;4975851;28;20511;-36
2022/08/08 09:50:26;;;;;;;0.70;0.70;;;22.20;54.20;;;;;;5014721;28;20411;-31
2022/08/08 09:52:52;;;;;;;0.50;0.45;;;22.20;54.10;;;;;;5014559;28;20084;-39
2022/08/08 09:55:19;;;;;;;1.55;0.90;;;22.20;54.30;;;;;;4984646;28;20042;-39
2022/08/08 09:57:46;;;;;;;4.25;1.52;;;22.20;54.40;;;;;;4985876;28;20523;-37
2022/08/08 10:00:13;;;;;;;10.23;2.40;;;22.20;54.50;;;;;;4985608;28;20042;-38
2022/08/08 10:02:46;;;;;;;9.27;3.13;;;22.20;54.80;;;;;;4981012;28;20042;-37
2022/08/08 10:05:14;;;;;;;10.70;2.75;;;22.20;55.20;;;;;;4995582;28;20531;-39
2022/08/08 10:07:52;;;;;;;12.25;3.50;;;22.20;55.00;;;;;;4985946;28;20508;-35
2022/08/08 10:10:38;;;;;;;11.95;3.47;;;22.30;55.10;;;;;;4983158;28;20503;-39
2022/08/08 10:13:19;;;;;;;15.73;3.50;;;22.20;55.30;;;;;;4984634;28;20073;-38
2022/08/08 10:15:46;;;;;;;14.35;3.85;;;22.30;55.40;;;;;;4982827;28;20484;-39
2022/08/08 10:18:12;;;;;;;14.60;4.07;;;22.30;55.50;;;;;;4985291;28;20082;-38
2022/08/08 10:20:42;;;;;;;9.90;4.32;;;22.30;55.40;;;;;;4984953;28;20070;-36
2022/08/08 10:23:08;;;;;;;15.82;4.75;;;22.30;55.70;;;;;;4984768;28;20043;-39
2022/08/08 10:25:33;;;;;;;14.90;4.63;;;22.30;56.00;;;;;;4984833;28;20479;-37
2022/08/08 10:27:59;;;;;;;14.43;4.22;;;22.30;56.20;;;;;;4998007;28;20810;-39
2022/08/08 10:30:25;;;;;;;14.70;5.10;;;22.30;56.30;;;;;;5012815;28;20074;-38
2022/08/08 10:32:55;;;;;;;19.50;5.32;;;22.30;56.30;;;;;;5017524;28;20050;-40
2022/08/08 10:35:26;;;;;;;15.65;4.82;;;22.30;56.20;;;;;;4982902;28;20057;-38
2022/08/08 10:37:53;;;;;;;15.68;4.60;;;22.30;56.30;;;;;;4983639;28;21194;-39
2022/08/08 10:40:19;;;;;;;13.97;4.40;;;22.40;56.30;;;;;;4633561;28;10000089;-39
2022/08/08 10:42:47;;;;;;;14.90;4.60;;;22.40;56.30;;;;;;4977506;28;20054;-39
2022/08/08 10:45:12;;;;;;;13.82;4.43;;;22.40;56.30;;;;;;4991874;28;20354;-38
2022/08/08 10:47:38;;;;;;;12.15;4.40;;;22.40;56.20;;;;;;4979068;28;20508;-38
2022/08/08 10:50:05;;;;;;;11.02;3.97;;;22.50;56.80;;;;;;4979310;28;20081;-39
2022/08/08 10:52:32;;;;;;;10.32;3.72;;;22.50;55.80;;;;;;4982110;28;20057;-41
2022/08/08 10:54:59;;;;;;;10.68;4.47;;;22.50;55.80;;;;;;4980574;28;20056;-39
2022/08/08 10:57:25;;;;;;;7.72;3.45;;;22.50;55.80;;;;;;4978254;28;20113;-44
2022/08/08 10:59:55;;;;;;;12.90;3.95;;;22.50;55.50;;;;;;4977707;28;20059;-38
2022/08/08 11:02:29;;;;;;;14.98;3.75;;;22.50;55.70;;;;;;4992335;28;20149;-40
2022/08/08 11:05:01;;;;;;;8.60;3.55;;;22.60;55.70;;;;;;4961035;28;20135;-33
2022/08/08 11:07:33;;;;;;;9.63;3.90;;;22.60;55.70;;;;;;5009763;28;20046;-39
2022/08/08 11:10:08;;;;;;;5.55;3.50;;;22.60;55.90;;;;;;4979769;28;20129;-42
2022/08/08 11:12:43;;;;;;;7.05;3.53;;;22.60;55.90;;;;;;4977118;28;20053;-40
2022/08/08 11:15:11;;;;;;;7.25;3.35;;;22.60;55.60;;;;;;5008999;28;20066;-39
2022/08/08 11:17:37;;;;;;;10.48;3.80;;;22.60;55.40;;;;;;4974349;28;20081;-39
2022/08/08 11:20:03;;;;;;;9.30;3.70;;;22.70;55.20;;;;;;4976823;28;20078;-39
2022/08/08 11:22:29;;;;;;;9.25;3.15;;;22.70;55.80;;;;;;5008044;28;20402;-40
2022/08/08 11:25:01;;;;;;;7.82;3.35;;;22.70;55.80;;;;;;4993364;28;20030;-40
2022/08/08 11:27:32;;;;;;;8.88;3.20;;;22.70;55.40;;;;;;4977581;28;20043;-40
2022/08/08 11:29:59;;;;;;;5.30;2.58;;;22.70;55.60;;;;;;4955765;28;20061;-40
2022/08/08 11:32:26;;;;;;;5.70;2.92;;;22.70;55.70;;;;;;4976303;28;20608;-39
2022/08/08 11:34:55;;;;;;;5.53;3.17;;;22.80;55.80;;;;;;5010121;28;20038;-39
2022/08/08 11:37:21;;;;;;;4.78;2.55;;;22.80;55.70;;;;;;4978941;28;20046;-40
2022/08/08 11:39:47;;;;;;;8.00;2.70;;;22.80;55.70;;;;;;4977776;28;21010;-38
2022/08/08 11:42:12;;;;;;;6.75;2.72;;;22.80;55.60;;;;;;4976642;28;20030;-29
2022/08/08 11:44:38;;;;;;;11.02;3.47;;;22.80;55.40;;;;;;4980963;28;20039;-38
2022/08/08 11:47:03;;;;;;;10.73;2.80;;;22.80;55.40;;;;;;4979016;28;20193;-36
2022/08/08 11:49:29;;;;;;;5.03;2.45;;;22.90;55.50;;;;;;4983911;28;20522;-39
2022/08/08 11:51:55;;;;;;;6.45;2.70;;;22.90;55.60;;;;;;4978768;28;20081;-39
2022/08/08 11:54:33;;;;;;;4.10;2.42;;;23.00;55.40;;;;;;4980977;28;20046;-38
2022/08/08 11:57:28;;;;;;;6.25;2.42;;;22.90;54.70;;;;;;4978816;28;20047;-40
2022/08/08 12:00:00;;;;;;;4.43;2.13;;;23.00;55.40;;;;;;4969062;28;20117;-39
2022/08/08 12:02:27;;;;;;;3.40;1.90;;;23.00;55.30;;;;;;4985216;28;20093;-34
2022/08/08 12:05:07;;;;;;;2.80;2.13;;;23.10;55.10;;;;;;4979910;28;20133;-41
2022/08/08 12:07:52;;;;;;;5.95;2.50;;;23.10;54.70;;;;;;5012185;28;20575;-39
2022/08/08 12:10:23;;;;;;;6.65;2.40;;;23.10;55.20;;;;;;4983124;28;20038;-36
2022/08/08 12:12:58;;;;;;;2.85;2.00;;;23.20;54.80;;;;;;4987287;28;20132;-38
2022/08/08 12:15:29;;;;;;;3.55;2.13;;;23.20;54.80;;;;;;4998257;28;20121;-38
2022/08/08 12:17:55;;;;;;;4.25;2.53;;;23.20;55.50;;;;;;4998285;28;20049;-38
2022/08/08 12:20:20;;;;;;;3.95;2.15;;;23.20;54.90;;;;;;4983310;28;20038;-40
2022/08/08 12:22:50;;;;;;;5.10;2.13;;;23.20;55.00;;;;;;4986805;28;20073;-39
2022/08/08 12:25:23;;;;;;;5.50;2.30;;;23.20;55.00;;;;;;4980814;28;20147;-38
2022/08/08 12:27:49;;;;;;;2.40;2.10;;;23.20;55.10;;;;;;4625855;28;10000072;-39
2022/08/08 12:30:15;;;;;;;3.40;2.25;;;23.20;54.40;;;;;;5004910;28;20455;-38
2022/08/08 12:32:42;;;;;;;4.10;1.60;;;23.20;54.60;;;;;;4977705;28;20596;-40
2022/08/08 12:35:17;;;;;;;5.18;1.70;;;23.20;53.80;;;;;;4980556;28;20077;-39
2022/08/08 12:37:44;;;;;;;2.40;1.80;;;23.20;54.60;;;;;;4973292;28;20046;-40
2022/08/08 12:40:14;;;;;;;2.60;1.73;;;23.20;54.60;;;;;;4977008;28;20085;-38
2022/08/08 12:42:47;;;;;;;2.10;1.40;;;23.30;55.00;;;;;;4973790;28;20053;-41
2022/08/08 12:45:12;;;;;;;4.10;1.70;;;23.20;54.70;;;;;;4978212;28;20073;-39
2022/08/08 12:47:38;;;;;;;3.63;2.08;;;23.30;55.00;;;;;;4987585;28;20090;-40
2022/08/08 12:50:04;;;;;;;9.02;1.90;;;23.30;54.70;;;;;;4983859;28;20050;-40
2022/08/08 12:52:33;;;;;;;6.82;2.30;;;23.30;55.20;;;;;;4985894;28;20785;-40
2022/08/08 12:55:06;;;;;;;5.43;1.92;;;23.30;55.10;;;;;;4984106;28;20050;-40
2022/08/08 12:57:32;;;;;;;5.82;2.20;;;23.30;54.70;;;;;;4985465;28;20046;-42
2022/08/08 12:59:58;;;;;;;10.68;2.10;;;23.30;55.10;;;;;;4989233;28;20056;-40
2022/08/08 13:02:32;;;;;;;7.28;1.98;;;23.30;55.00;;;;;;4987583;28;20045;-40
2022/08/08 13:04:59;;;;;;;8.90;1.48;;;23.30;55.30;;;;;;4987298;28;20562;-40
2022/08/08 13:07:35;;;;;;;4.40;1.40;;;23.30;55.20;;;;;;4989451;28;20034;-40
2022/08/08 13:10:03;;;;;;;7.85;1.77;;;23.30;55.20;;;;;;4988545;28;20105;-39
2022/08/08 13:12:37;;;;;;;3.05;1.83;;;23.30;54.80;;;;;;4987689;28;20050;-40
2022/08/08 13:15:11;;;;;;;3.55;1.55;;;23.30;55.00;;;;;;4989875;28;20610;-41
2022/08/08 13:17:37;;;;;;;2.55;1.52;;;23.30;55.20;;;;;;4986355;28;20051;-42